createdAt,value
2022-10-03T00:03:50.134Z,100233.00
2022-10-03T00:10:30.434Z,100227.00
2022-10-03T00:17:02.343Z,100194.00
2022-10-03T00:23:41.990Z,100188.00
2022-10-03T00:30:24.227Z,100173.00
2022-10-03T00:36:35.421Z,100166.00
2022-10-03T00:43:12.905Z,100174.00
2022-10-03T00:49:28.647Z,100178.00
2022-10-03T00:56:03.058Z,100177.00
2022-10-03T01:02:25.744Z,100173.00
2022-10-03T01:08:56.602Z,100165.00
2022-10-03T01:15:07.910Z,100159.00
2022-10-03T01:21:29.454Z,100170.00
2022-10-03T01:28:14.964Z,100185.00
2022-10-03T01:34:26.043Z,100179.00
2022-10-03T01:40:40.861Z,100178.00
2022-10-03T01:46:46.619Z,100176.00
2022-10-03T01:53:09.404Z,100183.00
2022-10-03T01:59:39.980Z,100189.00
2022-10-03T02:05:54.844Z,100197.00
2022-10-03T02:12:09.049Z,100191.00
2022-10-03T02:18:14.294Z,100193.00
2022-10-03T02:24:16.331Z,100176.00
2022-10-03T02:30:30.578Z,100191.00
2022-10-03T02:37:00.037Z,100168.00
2022-10-03T02:43:36.312Z,100184.00
2022-10-03T02:49:45.133Z,100186.00
2022-10-03T02:55:53.299Z,100186.00
2022-10-03T03:02:30.410Z,100186.00
2022-10-03T03:08:34.020Z,100187.00
2022-10-03T03:15:16.434Z,100193.00
2022-10-03T03:21:47.314Z,100200.00
2022-10-03T03:27:52.174Z,100191.00
2022-10-03T03:34:19.422Z,100191.00
2022-10-03T03:40:46.181Z,100169.00
2022-10-03T03:47:03.432Z,100156.00
2022-10-03T03:53:32.869Z,100165.00
2022-10-03T04:00:05.515Z,100177.00
2022-10-03T04:06:26.006Z,100164.00
2022-10-03T04:12:37.874Z,100173.00
2022-10-03T04:19:00.384Z,100175.00
2022-10-03T04:25:54.966Z,100179.00
2022-10-03T04:32:09.548Z,100173.00
2022-10-03T04:38:21.574Z,100176.00
2022-10-03T04:44:53.845Z,100173.00
2022-10-03T04:51:01.740Z,100172.00
2022-10-03T04:57:08.076Z,100161.00
2022-10-03T05:03:29.195Z,100166.00
2022-10-03T05:09:38.462Z,100165.00
2022-10-03T05:16:05.202Z,100152.00
2022-10-03T05:22:28.428Z,100147.00
2022-10-03T05:28:37.147Z,100160.00
2022-10-03T05:35:15.639Z,100152.00
2022-10-03T05:41:17.874Z,100139.00
2022-10-03T05:47:48.086Z,100121.00
2022-10-03T05:54:27.625Z,100164.00
2022-10-03T06:00:48.409Z,100147.00
2022-10-03T06:07:14.464Z,100154.00
2022-10-03T06:13:19.684Z,100154.00
2022-10-03T06:19:53.011Z,100158.00
2022-10-03T06:26:07.393Z,100163.00
2022-10-03T06:32:19.875Z,100170.00
2022-10-03T06:38:35.083Z,100178.00
2022-10-03T06:44:46.307Z,100180.00
2022-10-03T06:51:13.487Z,100176.00
2022-10-03T06:57:38.164Z,100182.00
2022-10-03T07:04:13.925Z,100169.00
2022-10-03T07:10:47.276Z,100162.00
2022-10-03T07:17:08.113Z,100160.00
2022-10-03T07:23:40.704Z,100167.00
2022-10-03T07:30:05.238Z,100161.00
2022-10-03T07:36:41.562Z,100155.00
2022-10-03T07:43:16.278Z,100164.00
2022-10-03T07:49:25.687Z,100148.00
2022-10-03T07:56:07.243Z,100070.00
2022-10-03T08:02:42.036Z,100076.00
2022-10-03T08:09:05.174Z,100136.00
2022-10-03T08:15:21.751Z,100133.00
2022-10-03T08:21:48.037Z,100120.00
2022-10-03T08:28:26.097Z,100133.00
2022-10-03T08:35:08.842Z,100123.00
2022-10-03T08:41:22.996Z,100112.00
2022-10-03T08:47:47.449Z,100120.00
2022-10-03T08:53:52.381Z,100108.00
2022-10-03T09:00:28.627Z,100121.00
2022-10-03T09:07:23.387Z,100081.00
2022-10-03T09:14:03.868Z,100076.00
2022-10-03T09:20:44.269Z,100095.00
2022-10-03T09:26:46.178Z,100073.00
2022-10-03T09:32:48.067Z,100081.00
2022-10-03T09:39:10.273Z,100078.00
2022-10-03T09:45:47.559Z,100078.00
2022-10-03T09:52:09.951Z,100080.00
2022-10-03T09:58:24.088Z,100089.00
2022-10-03T10:04:54.717Z,100076.00
2022-10-03T10:11:12.298Z,100074.00
2022-10-03T10:17:42.859Z,100059.00
2022-10-03T10:24:19.137Z,100045.00
2022-10-03T10:30:42.413Z,100035.00
2022-10-03T10:37:21.806Z,100045.00
2022-10-03T10:43:35.598Z,99987.00
2022-10-03T10:49:57.547Z,99893.00
2022-10-03T10:56:33.577Z,100046.00
2022-10-03T11:03:17.462Z,99880.00
2022-10-03T11:09:22.094Z,99880.00
2022-10-03T11:15:43.821Z,99868.00
2022-10-03T11:22:21.027Z,99899.00
2022-10-03T11:29:08.644Z,99909.00
2022-10-03T11:35:44.211Z,99876.00
2022-10-03T11:42:27.951Z,99879.00
2022-10-03T11:49:00.386Z,100014.00
2022-10-03T11:55:27.107Z,99908.00
2022-10-03T12:02:01.387Z,99961.00
2022-10-03T12:08:28.099Z,99966.00
2022-10-03T12:14:40.078Z,99981.00
2022-10-03T12:20:44.864Z,99980.00
2022-10-03T12:27:10.164Z,100033.00
2022-10-03T12:33:29.698Z,100058.00
2022-10-03T12:39:55.446Z,100036.00
2022-10-03T12:46:28.509Z,100053.00
2022-10-03T12:53:12.506Z,100078.00
2022-10-03T12:59:19.321Z,100070.00
2022-10-03T13:05:56.095Z,100046.00
2022-10-03T13:12:24.211Z,100036.00
2022-10-03T13:18:48.775Z,100041.00
2022-10-03T13:25:00.328Z,100035.00
2022-10-03T13:31:15.739Z,100039.00
2022-10-03T13:37:48.958Z,100004.00
2022-10-03T13:43:59.640Z,100041.00
2022-10-03T13:50:06.501Z,100039.00
2022-10-03T13:56:32.817Z,100042.00
2022-10-03T14:02:42.609Z,100029.00
2022-10-03T14:08:58.133Z,100033.00
2022-10-03T14:15:15.678Z,100035.00
2022-10-03T14:21:29.702Z,100038.00
2022-10-03T14:27:46.531Z,100043.00
2022-10-03T14:34:08.035Z,100037.00
2022-10-03T14:40:20.246Z,100042.00
2022-10-03T14:46:26.072Z,100035.00
2022-10-03T14:52:44.281Z,100023.00
2022-10-03T14:58:50.647Z,100035.00
2022-10-03T15:04:56.639Z,100037.00
2022-10-03T15:10:59.022Z,100039.00
2022-10-03T15:17:04.263Z,100055.00
2022-10-03T15:23:11.430Z,100060.00
2022-10-03T15:29:18.311Z,100061.00
2022-10-03T15:35:26.571Z,100080.00
2022-10-03T15:41:36.798Z,100078.00
2022-10-03T15:47:45.532Z,100082.00
2022-10-03T15:53:51.992Z,100104.00
2022-10-03T16:00:02.777Z,100112.00
2022-10-03T16:06:35.974Z,100116.00
2022-10-03T16:12:43.955Z,100114.00
2022-10-03T16:19:02.607Z,100126.00
2022-10-03T16:25:19.374Z,100139.00
2022-10-03T16:31:28.941Z,100146.00
2022-10-03T16:37:31.922Z,100145.00
2022-10-03T16:43:35.076Z,100173.00
2022-10-03T16:50:02.524Z,100177.00
2022-10-03T16:56:08.438Z,100180.00
2022-10-03T17:02:15.261Z,100176.00
2022-10-03T17:08:40.667Z,100184.00
2022-10-03T17:14:43.298Z,100188.00
2022-10-03T17:20:52.307Z,100187.00
2022-10-03T17:26:57.491Z,100202.00
2022-10-03T17:33:09.018Z,100198.00
2022-10-03T17:39:37.079Z,100193.00
2022-10-03T17:45:48.325Z,100196.00
2022-10-03T17:51:52.764Z,100205.00
2022-10-03T17:57:58.817Z,100203.00
2022-10-03T18:04:06.891Z,100203.00
2022-10-03T18:10:19.608Z,100214.00
2022-10-03T18:16:41.908Z,100221.00
2022-10-03T18:22:49.402Z,100219.00
2022-10-03T18:29:27.185Z,100210.00
2022-10-03T18:35:34.875Z,100215.00
2022-10-03T18:41:48.923Z,100225.00
2022-10-03T18:47:56.648Z,100225.00
2022-10-03T18:54:04.503Z,100223.00
2022-10-03T19:00:20.647Z,100224.00
2022-10-03T19:06:26.234Z,100224.00
2022-10-03T19:12:34.821Z,100228.00
2022-10-03T19:19:26.108Z,100233.00
2022-10-03T19:25:29.730Z,100245.00
2022-10-03T19:31:44.742Z,100245.00
2022-10-03T19:37:52.208Z,100243.00
2022-10-03T19:43:55.921Z,100247.00
2022-10-03T19:50:06.808Z,100260.00
2022-10-03T19:56:15.487Z,100255.00
2022-10-03T20:02:25.984Z,100269.00
2022-10-03T20:08:44.151Z,100271.00
2022-10-03T20:14:51.745Z,100276.00
2022-10-03T20:20:56.271Z,100286.00
2022-10-03T20:27:13.528Z,100286.00
2022-10-03T20:33:24.319Z,100280.00
2022-10-03T20:39:31.786Z,100288.00
2022-10-03T20:45:37.503Z,100283.00
2022-10-03T20:51:43.694Z,100289.00
2022-10-03T20:58:01.380Z,100305.00
2022-10-03T21:04:18.911Z,100310.00
2022-10-03T21:10:31.769Z,100309.00
2022-10-03T21:16:45.208Z,100310.00
2022-10-03T21:22:50.738Z,100312.00
2022-10-03T21:29:27.031Z,100313.00
2022-10-03T21:35:35.742Z,100307.00
2022-10-03T21:41:51.350Z,100304.00
2022-10-03T21:48:12.611Z,100309.00
2022-10-03T21:54:36.482Z,100302.00
2022-10-03T22:01:09.568Z,100313.00
2022-10-03T22:07:17.927Z,100310.00
2022-10-03T22:13:24.785Z,100315.00
2022-10-03T22:19:32.724Z,100307.00
2022-10-03T22:25:56.126Z,100311.00
2022-10-03T22:32:07.633Z,100310.00
2022-10-03T22:38:10.907Z,100309.00
2022-10-03T22:44:14.893Z,100299.00
2022-10-03T22:50:21.043Z,100292.00
2022-10-03T22:56:35.061Z,100306.00
2022-10-03T23:02:42.505Z,100307.00
2022-10-03T23:09:05.394Z,100301.00
2022-10-03T23:15:10.213Z,100307.00
2022-10-03T23:21:13.042Z,100301.00
2022-10-03T23:27:21.004Z,100305.00
2022-10-03T23:33:35.057Z,100306.00
2022-10-03T23:39:39.061Z,100319.00
2022-10-03T23:45:43.175Z,100317.00
2022-10-03T23:51:45.525Z,100326.00
2022-10-03T23:57:48.392Z,100324.00
